Etusivu
METAR-TAF:

METAR-TAF

Lentoasemat :

Asahikawa Air Base, Japani

Leveyspiiri: 43-48N, Pituuspiiri: 142-22E, korkeus merenpinnasta: 115 m

Tämänhetkinen sää

Tämä raportti tehtiin 14 tuntia ja 21 minuuttia sitten, kello 06.30 UTC
Tuuli 3 kn lännestä/luoteesta
Lämpötila 19°C
Kosteus 88%
Ilmanpaine 1012 hPa
Näkyvyys: 4000 m
Muutamia pilviä 800 ft:n korkeudessa
Hajanaisia pilviä 2000 ft:n korkeudessa
Hajonneita pilviä 3000 ft:n korkeudessa
heikkoja vesikuuroja, utua

METAR: RJCA 200630Z 29003KT 4000 -SHRA BR FEW008 SCT020 BKN030 19/17 Q1012 RMK 2ST008 3CU020 7CU030 A2991

Aika: 05:51 (20:51 UTC)


TAF: puuttuu

Säähavainnot ja -ennusteet yli 4000 lentoasemalta (METAR- ja TAF-raportit).

Käytössä olevat sääasemat on merkitty karttaan keltaisilla ja punaisilla pisteillä.

Aseta hiiri pisteen päälle nähdäksesi sääaseman nimen.

Klikkaa sitten nähdäksesi säähavainnot ja -ennusteet.

Kartan vaihtaminen: klikkaa mustalla rastilla varustettuja vihreitä pisteitä, niin voit zoomata sisään; viivalla varustettua vihreää pistettä, niin voit zoomata ulos tai vihreitä nuolia, niin pääset viereisille kartoille.


METAR-TAF: